createdAt,value
2018-05-02T00:00:30.474Z,6.00
2018-05-02T00:02:58.545Z,5.90
2018-05-02T00:05:26.589Z,5.80
2018-05-02T00:07:55.414Z,5.80
2018-05-02T00:10:23.473Z,5.80
2018-05-02T00:12:51.552Z,5.90
2018-05-02T00:15:19.619Z,5.90
2018-05-02T00:17:47.691Z,5.80
2018-05-02T00:20:15.757Z,5.80
2018-05-02T00:22:43.834Z,5.90
2018-05-02T00:25:11.891Z,5.80
2018-05-02T00:27:40.695Z,5.80
2018-05-02T00:30:08.746Z,5.70
2018-05-02T00:32:36.814Z,5.70
2018-05-02T00:35:04.858Z,5.70
2018-05-02T00:37:32.926Z,5.60
2018-05-02T00:40:00.982Z,5.60
2018-05-02T00:42:29.058Z,5.60
2018-05-02T00:44:57.106Z,5.50
2018-05-02T00:47:25.182Z,5.50
2018-05-02T00:49:53.341Z,5.40
2018-05-02T00:52:21.430Z,5.40
2018-05-02T00:54:49.506Z,5.40
2018-05-02T00:57:17.585Z,5.30
2018-05-02T00:59:45.665Z,5.30
2018-05-02T01:02:13.737Z,5.30
2018-05-02T01:04:41.798Z,5.30
2018-05-02T01:07:09.846Z,5.30
2018-05-02T01:09:37.921Z,5.30
2018-05-02T01:12:05.992Z,5.30
2018-05-02T01:14:34.053Z,5.20
2018-05-02T01:17:02.114Z,5.20
2018-05-02T01:19:30.190Z,5.20
2018-05-02T01:21:58.265Z,5.10
2018-05-02T01:24:26.326Z,5.10
2018-05-02T01:26:54.386Z,5.10
2018-05-02T01:29:22.429Z,5.10
2018-05-02T01:31:50.489Z,5.00
2018-05-02T01:34:18.541Z,5.00
2018-05-02T01:36:46.594Z,5.00
2018-05-02T01:39:14.673Z,5.00
2018-05-02T01:41:43.482Z,4.90
2018-05-02T01:44:11.542Z,4.90
2018-05-02T01:46:39.646Z,4.90
2018-05-02T01:49:19.437Z,4.90
2018-05-02T01:51:48.261Z,4.80
2018-05-02T01:54:16.323Z,4.80
2018-05-02T01:56:44.361Z,4.80
2018-05-02T01:59:12.431Z,4.80
2018-05-02T02:01:40.486Z,4.80
2018-05-02T02:04:08.553Z,4.80
2018-05-02T02:06:36.626Z,4.70
2018-05-02T02:12:05.482Z,4.70
2018-05-02T02:14:33.557Z,4.70
2018-05-02T02:17:01.605Z,4.70
2018-05-02T02:19:29.678Z,4.60
2018-05-02T02:21:57.754Z,4.70
2018-05-02T02:24:25.821Z,4.60
2018-05-02T02:26:53.889Z,4.60
2018-05-02T02:29:23.461Z,4.60
2018-05-02T02:31:51.526Z,4.60
2018-05-02T02:34:19.594Z,4.60
2018-05-02T02:36:47.666Z,4.60
2018-05-02T02:39:15.710Z,4.60
2018-05-02T02:41:43.771Z,4.50
2018-05-02T02:44:11.832Z,4.50
2018-05-02T02:46:39.889Z,4.50
2018-05-02T02:49:07.955Z,4.50
2018-05-02T02:51:39.831Z,4.40
2018-05-02T02:54:07.911Z,4.40
2018-05-02T02:56:35.983Z,4.30
2018-05-02T02:59:04.041Z,4.30
2018-05-02T03:01:32.111Z,4.20
2018-05-02T03:04:00.954Z,4.30
2018-05-02T03:06:29.022Z,4.20
2018-05-02T03:08:57.074Z,4.20
2018-05-02T03:11:25.886Z,4.20
2018-05-02T03:13:53.966Z,4.20
2018-05-02T03:16:22.030Z,4.20
2018-05-02T03:18:50.090Z,4.20
2018-05-02T03:21:18.177Z,4.10
2018-05-02T03:23:46.236Z,4.10
2018-05-02T03:26:14.293Z,4.10
2018-05-02T03:28:42.378Z,4.10
2018-05-02T03:31:10.445Z,4.10
2018-05-02T03:33:38.477Z,4.10
2018-05-02T03:36:06.553Z,4.10
2018-05-02T03:38:34.619Z,4.10
2018-05-02T03:41:02.686Z,4.10
2018-05-02T03:43:30.751Z,4.10
2018-05-02T03:45:58.810Z,4.00
2018-05-02T03:48:26.874Z,4.00
2018-05-02T03:50:54.963Z,4.10
2018-05-02T03:53:23.082Z,4.10
2018-05-02T03:55:51.149Z,4.10
2018-05-02T03:58:19.221Z,4.10
2018-05-02T04:00:59.050Z,4.10
2018-05-02T04:03:38.965Z,4.20
2018-05-02T04:09:05.826Z,4.20
2018-05-02T04:11:34.687Z,4.30
2018-05-02T04:14:02.722Z,4.20
2018-05-02T04:16:30.766Z,4.30
2018-05-02T04:18:59.614Z,4.40
2018-05-02T04:21:27.649Z,4.40
2018-05-02T04:23:55.743Z,4.50
2018-05-02T04:26:23.787Z,4.50
2018-05-02T04:28:51.861Z,4.50
2018-05-02T04:31:19.966Z,4.50
2018-05-02T04:33:48.052Z,4.60
2018-05-02T04:36:16.091Z,4.60
2018-05-02T04:38:44.136Z,4.60
2018-05-02T04:41:12.234Z,4.60
2018-05-02T04:43:40.275Z,4.60
2018-05-02T04:46:14.361Z,4.60
2018-05-02T04:48:43.210Z,4.70
2018-05-02T04:51:11.294Z,4.60
2018-05-02T04:53:39.610Z,4.70
2018-05-02T04:56:07.685Z,4.80
2018-05-02T04:58:36.462Z,4.80
2018-05-02T05:01:04.620Z,4.80
2018-05-02T05:03:32.698Z,4.90
2018-05-02T05:06:00.737Z,4.90
2018-05-02T05:08:28.778Z,5.00
2018-05-02T05:10:56.810Z,5.00
2018-05-02T05:13:24.891Z,5.00
2018-05-02T05:15:53.796Z,5.10
2018-05-02T05:18:21.809Z,5.10
2018-05-02T05:20:49.898Z,5.10
2018-05-02T05:23:17.948Z,5.20
2018-05-02T05:25:46.017Z,5.20
2018-05-02T05:28:14.144Z,5.20
2018-05-02T05:30:42.103Z,5.20
2018-05-02T05:33:10.152Z,5.30
2018-05-02T05:35:38.219Z,5.50
2018-05-02T05:38:06.318Z,5.50
2018-05-02T05:40:34.359Z,5.60
2018-05-02T05:43:02.436Z,5.70
2018-05-02T05:45:30.530Z,5.80
2018-05-02T05:47:58.682Z,5.80
2018-05-02T05:50:26.760Z,5.90
2018-05-02T05:52:54.802Z,6.00
2018-05-02T05:55:22.838Z,6.00
2018-05-02T05:57:51.677Z,6.10
2018-05-02T06:00:19.729Z,6.10
2018-05-02T06:02:47.761Z,6.20
2018-05-02T06:05:16.593Z,6.40
2018-05-02T06:07:44.686Z,6.40
2018-05-02T06:10:12.766Z,6.40
2018-05-02T06:12:41.901Z,6.30
2018-05-02T06:15:09.900Z,6.30
2018-05-02T06:17:37.952Z,6.40
2018-05-02T06:20:07.705Z,6.30
2018-05-02T06:22:41.663Z,6.30
2018-05-02T06:25:10.573Z,6.50
2018-05-02T06:27:38.662Z,6.50
2018-05-02T06:30:06.734Z,6.60
2018-05-02T06:32:34.818Z,6.70
2018-05-02T06:35:02.894Z,6.80
2018-05-02T06:37:30.950Z,6.90
2018-05-02T06:39:59.001Z,6.90
2018-05-02T06:42:27.037Z,6.90
2018-05-02T06:44:55.842Z,7.00
2018-05-02T06:47:24.662Z,7.00
2018-05-02T06:49:52.719Z,7.00
2018-05-02T06:52:20.753Z,7.10
2018-05-02T06:54:49.740Z,7.10
2018-05-02T06:57:23.911Z,7.10
2018-05-02T06:59:51.969Z,7.20
2018-05-02T07:02:20.040Z,7.20
2018-05-02T07:04:48.070Z,7.20
2018-05-02T07:07:16.254Z,7.30
2018-05-02T07:09:44.957Z,7.40
2018-05-02T07:12:13.002Z,7.40
2018-05-02T07:14:41.034Z,7.40
2018-05-02T07:17:09.119Z,7.40
2018-05-02T07:19:37.163Z,7.50
2018-05-02T07:22:05.338Z,7.60
2018-05-02T07:24:33.409Z,7.60
2018-05-02T07:27:01.437Z,7.60
2018-05-02T07:29:30.282Z,7.80
2018-05-02T07:31:58.411Z,7.70
2018-05-02T07:34:26.430Z,7.80
2018-05-02T07:36:54.485Z,7.90
2018-05-02T07:39:22.522Z,8.00
2018-05-02T07:41:50.562Z,8.10
2018-05-02T07:44:18.644Z,8.20
2018-05-02T07:46:46.642Z,8.30
2018-05-02T07:49:14.723Z,8.50
2018-05-02T07:51:42.763Z,8.60
2018-05-02T07:54:11.616Z,8.80
2018-05-02T07:56:39.679Z,8.70
2018-05-02T07:59:07.722Z,8.80
2018-05-02T08:01:35.758Z,8.90
2018-05-02T08:04:03.821Z,9.10
2018-05-02T08:06:50.466Z,9.30
2018-05-02T08:09:18.537Z,9.50
2018-05-02T08:11:46.562Z,9.70
2018-05-02T08:14:14.567Z,9.90
2018-05-02T08:16:43.359Z,10.10
2018-05-02T08:19:11.439Z,10.00
2018-05-02T08:21:39.558Z,10.20
2018-05-02T08:24:07.646Z,10.20
2018-05-02T08:26:35.682Z,10.30
2018-05-02T08:29:03.781Z,10.50
2018-05-02T08:31:31.857Z,10.60
2018-05-02T08:33:59.929Z,10.70
2018-05-02T08:36:27.987Z,10.80
2018-05-02T08:38:56.066Z,10.90
2018-05-02T08:41:24.073Z,11.00
2018-05-02T08:43:52.153Z,11.10
2018-05-02T08:46:20.217Z,11.20
2018-05-02T08:48:48.250Z,11.30
2018-05-02T08:51:16.385Z,11.30
2018-05-02T08:53:44.484Z,11.40
2018-05-02T08:56:12.553Z,11.30
2018-05-02T09:01:35.954Z,11.50
2018-05-02T09:04:03.991Z,11.60
2018-05-02T09:06:51.829Z,11.80
2018-05-02T09:09:19.915Z,11.90
2018-05-02T09:11:47.981Z,12.00
2018-05-02T09:14:16.056Z,12.10
2018-05-02T09:16:44.101Z,12.20
2018-05-02T09:19:12.170Z,12.20
2018-05-02T09:21:40.225Z,12.20
2018-05-02T09:24:08.286Z,12.30
2018-05-02T09:26:36.353Z,12.40
2018-05-02T09:29:05.199Z,12.60
2018-05-02T09:31:33.293Z,12.50
2018-05-02T09:34:01.329Z,12.70
2018-05-02T09:36:29.374Z,12.70
2018-05-02T09:38:57.461Z,12.80
2018-05-02T09:41:25.502Z,12.90
2018-05-02T09:43:53.543Z,13.00
2018-05-02T09:46:21.599Z,13.10
2018-05-02T09:48:49.672Z,13.20
2018-05-02T09:51:17.710Z,13.20
2018-05-02T09:53:45.755Z,13.20
2018-05-02T09:56:13.828Z,13.20
2018-05-02T09:58:41.869Z,13.20
2018-05-02T10:01:09.919Z,13.30
2018-05-02T10:03:37.998Z,13.50
2018-05-02T10:06:06.035Z,13.60
2018-05-02T10:08:34.085Z,13.70
2018-05-02T10:11:02.134Z,13.70
2018-05-02T10:13:30.957Z,13.90
2018-05-02T10:15:59.002Z,13.80
2018-05-02T10:18:27.822Z,14.10
2018-05-02T10:20:55.850Z,14.10
2018-05-02T10:23:24.711Z,14.10
2018-05-02T10:25:52.751Z,14.10
2018-05-02T10:28:20.845Z,14.20
2018-05-02T10:30:49.167Z,14.30
2018-05-02T10:33:18.006Z,14.40
2018-05-02T10:35:46.046Z,14.40
2018-05-02T10:38:14.141Z,14.50
2018-05-02T10:40:42.187Z,14.50
2018-05-02T10:43:10.271Z,14.50
2018-05-02T10:45:39.046Z,14.70
2018-05-02T10:48:07.093Z,14.60
2018-05-02T10:50:35.908Z,14.70
2018-05-02T10:53:04.010Z,14.70
2018-05-02T10:55:32.039Z,14.70
2018-05-02T10:58:00.123Z,14.70
2018-05-02T11:00:28.162Z,14.80
2018-05-02T11:02:56.199Z,14.90
2018-05-02T11:05:24.255Z,15.00
2018-05-02T11:07:52.298Z,15.10
2018-05-02T11:10:20.354Z,15.20
2018-05-02T11:12:55.054Z,15.40
2018-05-02T11:15:23.098Z,15.30
2018-05-02T11:17:51.131Z,15.30
2018-05-02T11:20:19.948Z,15.20
2018-05-02T11:22:47.994Z,15.20
2018-05-02T11:25:16.909Z,15.20
2018-05-02T11:27:44.926Z,15.30
2018-05-02T11:30:12.990Z,15.40
2018-05-02T11:32:41.037Z,15.50
2018-05-02T11:35:26.118Z,15.60
2018-05-02T11:37:54.174Z,15.70
2018-05-02T11:40:22.173Z,15.70
2018-05-02T11:42:50.254Z,15.80
2018-05-02T11:45:18.337Z,15.90
2018-05-02T11:47:47.154Z,15.80
2018-05-02T11:50:15.235Z,15.80
2018-05-02T11:52:43.278Z,15.70
2018-05-02T11:55:11.325Z,15.70
2018-05-02T11:57:39.371Z,15.70
2018-05-02T12:00:07.425Z,15.70
2018-05-02T12:02:35.542Z,15.80
2018-05-02T12:05:04.307Z,15.90
2018-05-02T12:07:32.383Z,15.90
2018-05-02T12:10:00.446Z,16.00
2018-05-02T12:12:28.539Z,16.00
2018-05-02T12:14:56.587Z,16.00
2018-05-02T12:17:24.665Z,16.00
2018-05-02T12:19:52.725Z,16.10
2018-05-02T12:22:20.807Z,16.10
2018-05-02T12:24:48.815Z,16.10
2018-05-02T12:27:17.706Z,16.10
2018-05-02T12:29:51.557Z,16.10
2018-05-02T12:32:19.638Z,16.10
2018-05-02T12:34:47.667Z,16.20
2018-05-02T12:37:15.701Z,16.30
2018-05-02T12:39:43.777Z,16.20
2018-05-02T12:42:11.854Z,16.20
2018-05-02T12:44:39.922Z,16.10
2018-05-02T12:47:08.773Z,16.30
2018-05-02T12:49:36.809Z,16.20
2018-05-02T12:52:04.818Z,16.30
2018-05-02T12:54:33.128Z,16.50
2018-05-02T12:57:01.193Z,16.60
2018-05-02T12:59:29.273Z,16.60
2018-05-02T13:01:57.533Z,16.60
2018-05-02T13:04:25.600Z,16.60
2018-05-02T13:06:59.771Z,16.60
2018-05-02T13:09:27.894Z,16.60
2018-05-02T13:11:55.966Z,16.60
2018-05-02T13:14:24.056Z,16.70
2018-05-02T13:16:52.921Z,16.80
2018-05-02T13:19:20.968Z,16.80
2018-05-02T13:21:49.010Z,16.60
2018-05-02T13:24:17.081Z,16.60
2018-05-02T13:26:45.128Z,16.70
2018-05-02T13:29:13.941Z,16.50
2018-05-02T13:31:41.991Z,16.50
2018-05-02T13:34:11.814Z,16.60
2018-05-02T13:36:40.654Z,16.60
2018-05-02T13:39:08.694Z,16.50
2018-05-02T13:41:36.731Z,16.70
2018-05-02T13:44:05.584Z,16.90
2018-05-02T13:46:33.620Z,16.90
2018-05-02T13:49:01.697Z,17.00
2018-05-02T13:51:29.745Z,16.90
2018-05-02T13:53:58.613Z,17.10
2018-05-02T13:56:26.690Z,17.10
2018-05-02T13:58:54.735Z,17.10
2018-05-02T14:01:22.771Z,17.20
2018-05-02T14:03:50.842Z,17.20
2018-05-02T14:06:18.926Z,17.30
2018-05-02T14:08:46.966Z,17.30
2018-05-02T14:11:15.056Z,17.40
2018-05-02T14:13:43.142Z,17.40
2018-05-02T14:16:11.190Z,17.40
2018-05-02T14:18:39.230Z,17.40
2018-05-02T14:21:07.327Z,17.30
2018-05-02T14:23:35.359Z,17.30
2018-05-02T14:26:16.366Z,17.30
2018-05-02T14:28:44.442Z,17.30
2018-05-02T14:31:12.502Z,17.30
2018-05-02T14:33:41.343Z,17.20
2018-05-02T14:36:09.420Z,17.20
2018-05-02T14:38:37.483Z,17.30
2018-05-02T14:41:05.566Z,17.40
2018-05-02T14:43:33.641Z,17.40
2018-05-02T14:46:01.719Z,17.30
2018-05-02T14:48:29.769Z,17.20
2018-05-02T14:50:57.838Z,17.30
2018-05-02T14:53:25.921Z,17.20
2018-05-02T14:55:54.022Z,17.20
2018-05-02T15:00:57.810Z,17.10
2018-05-02T15:03:25.820Z,17.10
2018-05-02T15:05:54.619Z,17.00
2018-05-02T15:08:31.534Z,17.00
2018-05-02T15:10:59.569Z,17.00
2018-05-02T15:13:28.415Z,17.00
2018-05-02T15:15:56.471Z,17.00
2018-05-02T15:18:24.550Z,17.10
2018-05-02T15:20:52.629Z,17.20
2018-05-02T15:23:20.607Z,17.40
2018-05-02T15:25:48.745Z,17.50
2018-05-02T15:28:16.785Z,17.60
2018-05-02T15:30:44.862Z,17.70
2018-05-02T15:33:12.929Z,17.70
2018-05-02T15:35:41.249Z,17.60
2018-05-02T15:38:09.330Z,17.60
2018-05-02T15:40:37.347Z,17.70
2018-05-02T15:43:05.436Z,17.90
2018-05-02T15:45:33.522Z,18.20
2018-05-02T15:48:01.582Z,18.30
2018-05-02T15:50:29.606Z,18.30
2018-05-02T15:52:57.658Z,18.10
2018-05-02T15:55:25.778Z,17.90
2018-05-02T15:57:53.892Z,17.80
2018-05-02T16:00:21.858Z,17.70
2018-05-02T16:02:49.990Z,17.70
2018-05-02T16:05:18.036Z,17.60
2018-05-02T16:07:46.904Z,17.30
2018-05-02T16:10:14.954Z,17.30
2018-05-02T16:12:42.994Z,17.20
2018-05-02T16:15:11.081Z,17.10
2018-05-02T16:17:39.170Z,17.00
2018-05-02T16:20:07.443Z,16.80
2018-05-02T16:22:35.495Z,16.80
2018-05-02T16:25:03.547Z,16.70
2018-05-02T16:27:32.392Z,16.40
2018-05-02T16:30:00.481Z,16.40
2018-05-02T16:32:32.637Z,16.30
2018-05-02T16:35:00.725Z,16.30
2018-05-02T16:37:28.810Z,16.30
2018-05-02T16:39:56.855Z,16.30
2018-05-02T16:42:24.908Z,16.20
2018-05-02T16:44:53.027Z,16.20
2018-05-02T16:47:21.871Z,16.10
2018-05-02T16:49:49.932Z,16.10
2018-05-02T16:52:17.959Z,16.10
2018-05-02T16:54:46.815Z,16.10
2018-05-02T16:57:14.894Z,16.10
2018-05-02T16:59:42.961Z,16.10
2018-05-02T17:02:11.082Z,16.00
2018-05-02T17:04:39.156Z,16.00
2018-05-02T17:07:07.182Z,15.90
2018-05-02T17:09:35.225Z,15.90
2018-05-02T17:12:03.286Z,15.90
2018-05-02T17:14:31.322Z,15.80
2018-05-02T17:17:00.176Z,15.80
2018-05-02T17:19:28.269Z,15.80
2018-05-02T17:21:56.345Z,15.70
2018-05-02T17:24:24.371Z,15.70
2018-05-02T17:26:52.480Z,15.70
2018-05-02T17:29:20.558Z,15.70
2018-05-02T17:31:49.395Z,15.60
2018-05-02T17:34:17.452Z,15.60
2018-05-02T17:36:45.799Z,15.60
2018-05-02T17:39:14.598Z,15.60
2018-05-02T17:41:43.459Z,15.60
2018-05-02T17:44:22.490Z,15.50
2018-05-02T17:46:50.591Z,15.50
2018-05-02T17:49:18.621Z,15.50
2018-05-02T17:51:46.661Z,15.40
2018-05-02T17:54:14.767Z,15.40
2018-05-02T17:56:42.850Z,15.40
2018-05-02T17:59:10.956Z,15.40
2018-05-02T18:01:38.994Z,15.40
2018-05-02T18:04:07.061Z,15.30
2018-05-02T18:06:35.157Z,15.30
2018-05-02T18:09:03.966Z,15.30
2018-05-02T18:11:32.006Z,15.20
2018-05-02T18:14:01.620Z,15.20
2018-05-02T18:16:30.480Z,15.20
2018-05-02T18:18:58.566Z,15.10
2018-05-02T18:21:26.646Z,15.10
2018-05-02T18:23:55.518Z,15.00
2018-05-02T18:26:23.538Z,15.00
2018-05-02T18:28:51.603Z,14.90
2018-05-02T18:31:19.704Z,14.90
2018-05-02T18:33:47.794Z,14.80
2018-05-02T18:36:15.878Z,14.80
2018-05-02T18:38:43.926Z,14.80
2018-05-02T18:41:20.844Z,14.70
2018-05-02T18:43:49.688Z,14.60
2018-05-02T18:46:17.727Z,14.60
2018-05-02T18:48:45.787Z,14.60
2018-05-02T18:51:13.889Z,14.50
2018-05-02T18:53:42.006Z,14.50
2018-05-02T18:56:10.057Z,14.40
2018-05-02T18:58:38.118Z,14.40
2018-05-02T19:01:17.046Z,14.30
2018-05-02T19:03:45.125Z,14.30
2018-05-02T19:06:13.207Z,14.20
2018-05-02T19:08:41.449Z,14.20
2018-05-02T19:11:16.315Z,14.10
2018-05-02T19:14:01.198Z,14.00
2018-05-02T19:16:30.019Z,14.00
2018-05-02T19:19:03.674Z,14.00
2018-05-02T19:21:31.713Z,14.00
2018-05-02T19:23:59.829Z,13.90
2018-05-02T19:26:33.801Z,13.90
2018-05-02T19:29:01.796Z,13.90
2018-05-02T19:31:35.623Z,13.90
2018-05-02T19:34:05.393Z,13.70
2018-05-02T19:36:33.472Z,13.70
2018-05-02T19:39:01.566Z,13.70
2018-05-02T19:41:35.454Z,13.60
2018-05-02T19:44:04.360Z,13.50
2018-05-02T19:46:32.595Z,13.50
2018-05-02T19:49:00.662Z,13.40
2018-05-02T19:51:34.451Z,13.30
2018-05-02T19:54:02.544Z,13.30
2018-05-02T19:56:30.631Z,13.20
2018-05-02T19:58:58.686Z,13.20
2018-05-02T20:01:32.454Z,13.20
2018-05-02T20:04:01.290Z,13.20
2018-05-02T20:06:29.399Z,13.10
2018-05-02T20:09:03.172Z,13.20
2018-05-02T20:11:36.917Z,13.20
2018-05-02T20:14:06.298Z,13.10
2018-05-02T20:16:34.370Z,13.10
2018-05-02T20:19:02.440Z,13.10
2018-05-02T20:21:30.449Z,13.10
2018-05-02T20:23:58.506Z,13.10
2018-05-02T20:26:27.354Z,13.00
2018-05-02T20:28:55.403Z,13.00
2018-05-02T20:31:23.470Z,13.00
2018-05-02T20:33:51.512Z,12.90
2018-05-02T20:36:20.361Z,12.90
2018-05-02T20:38:48.410Z,12.90
2018-05-02T20:41:16.441Z,12.90
2018-05-02T20:43:46.309Z,12.80
2018-05-02T20:46:14.360Z,12.80
2018-05-02T20:48:42.392Z,12.80
2018-05-02T20:51:10.491Z,12.70
2018-05-02T20:53:38.647Z,12.70
2018-05-02T20:56:07.450Z,12.70
2018-05-02T20:58:35.556Z,12.60
2018-05-02T21:01:03.598Z,12.70
2018-05-02T21:03:31.685Z,12.60
2018-05-02T21:05:59.748Z,12.60
2018-05-02T21:08:27.802Z,12.50
2018-05-02T21:10:56.857Z,12.40
2018-05-02T21:13:24.907Z,12.40
2018-05-02T21:15:53.095Z,12.40
2018-05-02T21:18:21.181Z,12.40
2018-05-02T21:20:49.227Z,12.40
2018-05-02T21:23:17.326Z,12.40
2018-05-02T21:25:46.195Z,12.40
2018-05-02T21:28:14.234Z,12.30
2018-05-02T21:30:42.327Z,12.30
2018-05-02T21:33:10.412Z,12.40
2018-05-02T21:35:38.478Z,12.30
2018-05-02T21:38:06.566Z,12.30
2018-05-02T21:40:34.683Z,12.30
2018-05-02T21:43:03.454Z,12.20
2018-05-02T21:45:31.559Z,12.20
2018-05-02T21:47:59.598Z,12.20
2018-05-02T21:50:27.695Z,12.10
2018-05-02T21:52:55.817Z,12.10
2018-05-02T21:55:23.846Z,12.10
2018-05-02T21:57:51.934Z,12.00
2018-05-02T22:00:20.009Z,12.00
2018-05-02T22:02:48.055Z,12.00
2018-05-02T22:05:16.170Z,12.00
2018-05-02T22:07:44.154Z,12.00
2018-05-02T22:10:13.030Z,12.00
2018-05-02T22:12:41.103Z,12.00
2018-05-02T22:15:09.907Z,11.90
2018-05-02T22:17:38.863Z,11.90
2018-05-02T22:20:06.953Z,11.90
2018-05-02T22:22:35.023Z,11.80
2018-05-02T22:25:03.062Z,11.90
2018-05-02T22:27:31.119Z,11.80
2018-05-02T22:30:05.984Z,11.90
2018-05-02T22:32:34.073Z,11.80
2018-05-02T22:35:02.136Z,11.80
2018-05-02T22:37:30.211Z,11.80
2018-05-02T22:39:58.258Z,11.70
2018-05-02T22:42:26.438Z,11.70
2018-05-02T22:44:54.443Z,11.60
2018-05-02T22:47:23.263Z,11.60
2018-05-02T22:49:51.366Z,11.60
2018-05-02T22:52:19.406Z,11.50
2018-05-02T22:54:47.445Z,11.50
2018-05-02T22:57:15.535Z,11.40
2018-05-02T22:59:43.573Z,11.40
2018-05-02T23:02:11.637Z,11.40
2018-05-02T23:04:39.698Z,11.30
2018-05-02T23:07:07.728Z,11.30
2018-05-02T23:09:35.821Z,11.30
2018-05-02T23:12:03.980Z,11.20
2018-05-02T23:14:32.773Z,11.10
2018-05-02T23:17:00.805Z,11.10
2018-05-02T23:19:29.661Z,11.00
2018-05-02T23:21:57.723Z,11.00
2018-05-02T23:24:25.818Z,11.00
2018-05-02T23:26:55.579Z,10.90
2018-05-02T23:29:23.686Z,10.90
